SWA4231 KSFO-KLAS
Flight info
| Callsign | SWA4231 |
|---|---|
| Flight time | 1h 11m |
| Altitude | 35000 |
| Route | WESLA5 NTELL Q174 FLCHR COKTL4 |
| Aircraft | B737/H-SDE1FGHILORVWXY/HB1 |
Departure
| Time | 2026-05-06 05:21 |
|---|---|
| Airport | San Francisco International Airport (KSFO) |
Arrival
| Time | 2026-05-06 06:32 |
|---|---|
| Airport | Harry Reid International Airport (KLAS) |
| Time | Latitude | Longitude | Altitude | Speed | Heading |
|---|---|---|---|---|---|
| 2026-05-06 04:51 | 37.61198 | -122.38430 | 24 ft | 0 kts | 297° |
| 2026-05-06 05:10 | 37.61196 | -122.38426 | 26 ft | 4 kts | 269° |
| 2026-05-06 05:10 | 37.61194 | -122.38419 | 24 ft | 4 kts | 296° |
| 2026-05-06 05:11 | 37.61180 | -122.38392 | 27 ft | 4 kts | 320° |
| 2026-05-06 05:11 | 37.61158 | -122.38380 | 28 ft | 4 kts | 2° |
| 2026-05-06 05:11 | 37.61144 | -122.38383 | 24 ft | 1 kts | 13° |
| 2026-05-06 05:11 | 37.61142 | -122.38383 | 24 ft | 0 kts | 13° |
| 2026-05-06 05:15 | 37.61148 | -122.38381 | 28 ft | 3 kts | 13° |
| 2026-05-06 05:15 | 37.61200 | -122.38349 | 26 ft | 14 kts | 47° |
| 2026-05-06 05:15 | 37.61270 | -122.38226 | 26 ft | 20 kts | 28° |
| 2026-05-06 05:15 | 37.61377 | -122.38156 | 28 ft | 14 kts | 27° |
| 2026-05-06 05:16 | 37.61414 | -122.38121 | 24 ft | 1 kts | 74° |
| 2026-05-06 05:16 | 37.61406 | -122.38090 | 24 ft | 10 kts | 113° |
| 2026-05-06 05:16 | 37.61361 | -122.37987 | 27 ft | 15 kts | 117° |
| 2026-05-06 05:16 | 37.61309 | -122.37860 | 26 ft | 17 kts | 117° |
| 2026-05-06 05:17 | 37.61250 | -122.37720 | 27 ft | 19 kts | 117° |
| 2026-05-06 05:17 | 37.61238 | -122.37554 | 27 ft | 20 kts | 67° |
| 2026-05-06 05:17 | 37.61346 | -122.37438 | 26 ft | 22 kts | 27° |
| 2026-05-06 05:17 | 37.61484 | -122.37347 | 26 ft | 23 kts | 31° |
| 2026-05-06 05:18 | 37.61561 | -122.37175 | 24 ft | 24 kts | 91° |
| 2026-05-06 05:18 | 37.61495 | -122.36976 | 26 ft | 25 kts | 121° |
| 2026-05-06 05:18 | 37.61380 | -122.36800 | 24 ft | 27 kts | 127° |
| 2026-05-06 05:18 | 37.61287 | -122.36595 | 27 ft | 28 kts | 118° |
| 2026-05-06 05:19 | 37.61195 | -122.36374 | 24 ft | 29 kts | 118° |
| 2026-05-06 05:19 | 37.61103 | -122.36158 | 28 ft | 26 kts | 118° |
| 2026-05-06 05:19 | 37.61052 | -122.36020 | 24 ft | 8 kts | 102° |
| 2026-05-06 05:19 | 37.61052 | -122.35985 | 24 ft | 1 kts | 82° |
| 2026-05-06 05:20 | 37.61062 | -122.35954 | 26 ft | 9 kts | 57° |
| 2026-05-06 05:20 | 37.61150 | -122.35885 | 24 ft | 12 kts | 21° |
| 2026-05-06 05:20 | 37.61210 | -122.35930 | 24 ft | 12 kts | 296° |
| 2026-05-06 05:20 | 37.61279 | -122.36095 | 28 ft | 47 kts | 297° |
| 2026-05-06 05:21 | 37.61560 | -122.36766 | 25 ft | 123 kts | 297° |
| 2026-05-06 05:21 | 37.62053 | -122.37956 | 90 ft | 177 kts | 297° |
| 2026-05-06 05:21 | 37.62642 | -122.39356 | 772 ft | 186 kts | 296° |
| 2026-05-06 05:21 | 37.63257 | -122.40811 | 1774 ft | 183 kts | 297° |
| 2026-05-06 05:22 | 37.63902 | -122.42295 | 2351 ft | 207 kts | 298° |
| 2026-05-06 05:22 | 37.64639 | -122.43969 | 2915 ft | 229 kts | 299° |
| 2026-05-06 05:22 | 37.65436 | -122.45771 | 3717 ft | 236 kts | 299° |
| 2026-05-06 05:22 | 37.66243 | -122.47584 | 4620 ft | 239 kts | 299° |
| 2026-05-06 05:23 | 37.66859 | -122.49560 | 5416 ft | 246 kts | 279° |
| 2026-05-06 05:23 | 37.66695 | -122.51694 | 6235 ft | 250 kts | 249° |
| 2026-05-06 05:23 | 37.64057 | -122.54389 | 7725 ft | 261 kts | 188° |
| 2026-05-06 05:24 | 37.62246 | -122.54166 | 8444 ft | 268 kts | 157° |
| 2026-05-06 05:24 | 37.60597 | -122.53169 | 9367 ft | 270 kts | 155° |
| 2026-05-06 05:24 | 37.58777 | -122.52289 | 9928 ft | 290 kts | 158° |
| 2026-05-06 05:24 | 37.56833 | -122.51364 | 10449 ft | 309 kts | 157° |
| 2026-05-06 05:25 | 37.54762 | -122.50356 | 10893 ft | 329 kts | 156° |
| 2026-05-06 05:25 | 37.52748 | -122.48901 | 11302 ft | 341 kts | 133° |
| 2026-05-06 05:25 | 37.51421 | -122.46427 | 11786 ft | 346 kts | 105° |
| 2026-05-06 05:25 | 37.50870 | -122.43470 | 12370 ft | 353 kts | 101° |
| 2026-05-06 05:26 | 37.50168 | -122.40470 | 13029 ft | 359 kts | 102° |
| 2026-05-06 05:26 | 37.49461 | -122.37441 | 13743 ft | 362 kts | 102° |
| 2026-05-06 05:26 | 37.48758 | -122.34389 | 14509 ft | 364 kts | 102° |
| 2026-05-06 05:26 | 37.48062 | -122.31348 | 15205 ft | 368 kts | 102° |
| 2026-05-06 05:27 | 37.47351 | -122.28234 | 15902 ft | 371 kts | 102° |
| 2026-05-06 05:27 | 37.46633 | -122.25098 | 16572 ft | 375 kts | 102° |
| 2026-05-06 05:27 | 37.45908 | -122.21927 | 17229 ft | 378 kts | 102° |
| 2026-05-06 05:27 | 37.45177 | -122.18735 | 17862 ft | 381 kts | 102° |
| 2026-05-06 05:28 | 37.44439 | -122.15518 | 18483 ft | 385 kts | 102° |
| 2026-05-06 05:28 | 37.43693 | -122.12266 | 19071 ft | 388 kts | 102° |
| 2026-05-06 05:28 | 37.42941 | -122.08996 | 19658 ft | 391 kts | 102° |
| 2026-05-06 05:28 | 37.42182 | -122.05699 | 20215 ft | 394 kts | 102° |
| 2026-05-06 05:29 | 37.41416 | -122.02378 | 20761 ft | 397 kts | 102° |
| 2026-05-06 05:29 | 37.40654 | -121.99077 | 21298 ft | 399 kts | 101° |
| 2026-05-06 05:29 | 37.39876 | -121.95712 | 21826 ft | 402 kts | 101° |
| 2026-05-06 05:29 | 37.39093 | -121.92332 | 22346 ft | 404 kts | 101° |
| 2026-05-06 05:30 | 37.38304 | -121.88926 | 22826 ft | 407 kts | 101° |
| 2026-05-06 05:30 | 37.37509 | -121.85500 | 23299 ft | 409 kts | 101° |
| 2026-05-06 05:30 | 37.36707 | -121.82053 | 23756 ft | 412 kts | 101° |
| 2026-05-06 05:30 | 37.35900 | -121.78584 | 24199 ft | 415 kts | 101° |
| 2026-05-06 05:31 | 37.35084 | -121.75092 | 24654 ft | 417 kts | 101° |
| 2026-05-06 05:31 | 37.34277 | -121.71629 | 25096 ft | 420 kts | 101° |
| 2026-05-06 05:31 | 37.33453 | -121.68103 | 25509 ft | 422 kts | 101° |
| 2026-05-06 05:31 | 37.32622 | -121.64554 | 25865 ft | 425 kts | 101° |
| 2026-05-06 05:32 | 37.31785 | -121.60989 | 26277 ft | 426 kts | 101° |
| 2026-05-06 05:32 | 37.30947 | -121.57416 | 26689 ft | 428 kts | 101° |
| 2026-05-06 05:32 | 37.30101 | -121.53820 | 27058 ft | 431 kts | 100° |
| 2026-05-06 05:32 | 37.29250 | -121.50203 | 27442 ft | 433 kts | 100° |
| 2026-05-06 05:33 | 37.28394 | -121.46575 | 27807 ft | 434 kts | 100° |
| 2026-05-06 05:33 | 37.27532 | -121.42929 | 28167 ft | 436 kts | 100° |
| 2026-05-06 05:33 | 37.26677 | -121.39316 | 28502 ft | 438 kts | 100° |
| 2026-05-06 05:33 | 37.25808 | -121.35644 | 28876 ft | 440 kts | 100° |
| 2026-05-06 05:34 | 37.24932 | -121.31956 | 29230 ft | 442 kts | 100° |
| 2026-05-06 05:34 | 37.24054 | -121.28256 | 29576 ft | 443 kts | 100° |
| 2026-05-06 05:34 | 37.23170 | -121.24544 | 29901 ft | 445 kts | 100° |
| 2026-05-06 05:34 | 37.22283 | -121.20818 | 30235 ft | 447 kts | 100° |
| 2026-05-06 05:35 | 37.21392 | -121.17088 | 30651 ft | 446 kts | 100° |
| 2026-05-06 05:35 | 37.20504 | -121.13366 | 31091 ft | 445 kts | 100° |
| 2026-05-06 05:35 | 37.19629 | -121.09707 | 31502 ft | 443 kts | 100° |
| 2026-05-06 05:35 | 37.18745 | -121.06012 | 31910 ft | 442 kts | 100° |
| 2026-05-06 05:36 | 37.17861 | -121.02329 | 32332 ft | 440 kts | 100° |
| 2026-05-06 05:36 | 37.16981 | -120.98662 | 32761 ft | 438 kts | 99° |
| 2026-05-06 05:36 | 37.16104 | -120.95015 | 33126 ft | 437 kts | 99° |
| 2026-05-06 05:36 | 37.15227 | -120.91376 | 33474 ft | 436 kts | 100° |
| 2026-05-06 05:37 | 37.14349 | -120.87738 | 33811 ft | 435 kts | 100° |
| 2026-05-06 05:37 | 37.13472 | -120.84111 | 34144 ft | 435 kts | 100° |
| 2026-05-06 05:37 | 37.12595 | -120.80491 | 34484 ft | 434 kts | 100° |
| 2026-05-06 05:37 | 37.11732 | -120.76933 | 34803 ft | 433 kts | 100° |
| 2026-05-06 05:38 | 37.10855 | -120.73322 | 35039 ft | 434 kts | 100° |
| 2026-05-06 05:38 | 37.09972 | -120.69696 | 35120 ft | 435 kts | 100° |
| 2026-05-06 05:38 | 37.08208 | -120.62465 | 35103 ft | 433 kts | 100° |
| 2026-05-06 05:39 | 37.06443 | -120.55254 | 35102 ft | 434 kts | 100° |
| 2026-05-06 05:39 | 37.04685 | -120.48095 | 35099 ft | 432 kts | 100° |
| 2026-05-06 05:40 | 37.02914 | -120.40899 | 35109 ft | 433 kts | 100° |
| 2026-05-06 05:40 | 37.01138 | -120.33703 | 35110 ft | 433 kts | 100° |
| 2026-05-06 05:41 | 36.99357 | -120.26513 | 35110 ft | 433 kts | 100° |
| 2026-05-06 05:41 | 36.97572 | -120.19323 | 35110 ft | 432 kts | 100° |
| 2026-05-06 05:42 | 36.95797 | -120.12196 | 35110 ft | 433 kts | 100° |
| 2026-05-06 05:42 | 36.94004 | -120.05017 | 35109 ft | 432 kts | 100° |
| 2026-05-06 05:43 | 36.92206 | -119.97841 | 35109 ft | 432 kts | 101° |
| 2026-05-06 05:43 | 36.90782 | -119.90697 | 35098 ft | 416 kts | 85° |
| 2026-05-06 05:44 | 36.91079 | -119.87172 | 35122 ft | 405 kts | 71° |
| 2026-05-06 05:44 | 36.91929 | -119.83827 | 35113 ft | 405 kts | 68° |
| 2026-05-06 05:44 | 36.93885 | -119.77230 | 35103 ft | 405 kts | 65° |
| 2026-05-06 05:45 | 36.95967 | -119.70697 | 35099 ft | 404 kts | 65° |
| 2026-05-06 05:45 | 36.98082 | -119.64188 | 35094 ft | 404 kts | 64° |
| 2026-05-06 05:46 | 37.00187 | -119.57721 | 35095 ft | 404 kts | 64° |
| 2026-05-06 05:46 | 37.02305 | -119.51202 | 35085 ft | 404 kts | 65° |
| 2026-05-06 05:47 | 37.04419 | -119.44683 | 35087 ft | 405 kts | 65° |
| 2026-05-06 05:47 | 37.06527 | -119.38167 | 35125 ft | 404 kts | 65° |
| 2026-05-06 05:48 | 37.08624 | -119.31671 | 35100 ft | 405 kts | 65° |
| 2026-05-06 05:48 | 37.10727 | -119.25140 | 35109 ft | 404 kts | 65° |
| 2026-05-06 05:49 | 37.12828 | -119.18605 | 35115 ft | 404 kts | 65° |
| 2026-05-06 05:49 | 37.14925 | -119.12065 | 35114 ft | 404 kts | 65° |
| 2026-05-06 05:50 | 37.17017 | -119.05523 | 35128 ft | 404 kts | 65° |
| 2026-05-06 05:50 | 37.19092 | -118.99022 | 35132 ft | 404 kts | 65° |
| 2026-05-06 05:51 | 37.21178 | -118.92471 | 35138 ft | 405 kts | 65° |
| 2026-05-06 05:51 | 37.23262 | -118.85914 | 35141 ft | 405 kts | 65° |
| 2026-05-06 05:52 | 37.25342 | -118.79356 | 35148 ft | 404 kts | 65° |
| 2026-05-06 05:52 | 37.27366 | -118.72815 | 35094 ft | 406 kts | 70° |
| 2026-05-06 05:53 | 37.28107 | -118.65731 | 35110 ft | 412 kts | 78° |
| 2026-05-06 05:53 | 37.28702 | -118.58569 | 35070 ft | 412 kts | 79° |
| 2026-05-06 05:54 | 37.29257 | -118.51413 | 35062 ft | 412 kts | 79° |
| 2026-05-06 05:54 | 37.29799 | -118.44303 | 35077 ft | 412 kts | 79° |
| 2026-05-06 05:55 | 37.30339 | -118.37144 | 35039 ft | 411 kts | 79° |
| 2026-05-06 05:55 | 37.30875 | -118.29982 | 35035 ft | 412 kts | 79° |
| 2026-05-06 05:56 | 37.31407 | -118.22821 | 35050 ft | 412 kts | 79° |
| 2026-05-06 05:56 | 37.31931 | -118.15699 | 35037 ft | 411 kts | 79° |
| 2026-05-06 05:57 | 37.32453 | -118.08548 | 35044 ft | 411 kts | 79° |
| 2026-05-06 05:57 | 37.32971 | -118.01394 | 35042 ft | 411 kts | 79° |
| 2026-05-06 05:58 | 37.33486 | -117.94231 | 35046 ft | 413 kts | 80° |
| 2026-05-06 05:58 | 37.33997 | -117.87049 | 35042 ft | 413 kts | 80° |
| 2026-05-06 05:59 | 37.34501 | -117.79918 | 34896 ft | 412 kts | 79° |
| 2026-05-06 05:59 | 37.34752 | -117.76334 | 34678 ft | 411 kts | 79° |
| 2026-05-06 05:59 | 37.35002 | -117.72763 | 34439 ft | 409 kts | 79° |
| 2026-05-06 06:00 | 37.35250 | -117.69205 | 34236 ft | 408 kts | 79° |
| 2026-05-06 06:00 | 37.35493 | -117.65660 | 34005 ft | 406 kts | 79° |
| 2026-05-06 06:00 | 37.35737 | -117.62129 | 33782 ft | 405 kts | 79° |
| 2026-05-06 06:00 | 37.35979 | -117.58599 | 33567 ft | 405 kts | 79° |
| 2026-05-06 06:01 | 37.36217 | -117.55116 | 33362 ft | 405 kts | 79° |
| 2026-05-06 06:01 | 37.36457 | -117.51583 | 33138 ft | 407 kts | 79° |
| 2026-05-06 06:01 | 37.36697 | -117.48039 | 32917 ft | 407 kts | 79° |
| 2026-05-06 06:01 | 37.36935 | -117.44491 | 32681 ft | 408 kts | 79° |
| 2026-05-06 06:02 | 37.37174 | -117.40935 | 32458 ft | 409 kts | 79° |
| 2026-05-06 06:02 | 37.37412 | -117.37372 | 32239 ft | 410 kts | 79° |
| 2026-05-06 06:02 | 37.37649 | -117.33798 | 32018 ft | 411 kts | 79° |
| 2026-05-06 06:02 | 37.37752 | -117.30245 | 31787 ft | 417 kts | 89° |
| 2026-05-06 06:03 | 37.37119 | -117.26635 | 31541 ft | 433 kts | 104° |
| 2026-05-06 06:03 | 37.35658 | -117.23254 | 31308 ft | 450 kts | 119° |
| 2026-05-06 06:03 | 37.33583 | -117.20245 | 31117 ft | 458 kts | 123° |
| 2026-05-06 06:03 | 37.31468 | -117.17252 | 31079 ft | 458 kts | 123° |
| 2026-05-06 06:04 | 37.27199 | -117.11280 | 31062 ft | 460 kts | 124° |
| 2026-05-06 06:04 | 37.22912 | -117.05324 | 31056 ft | 460 kts | 124° |
| 2026-05-06 06:05 | 37.18650 | -116.99413 | 31051 ft | 460 kts | 124° |
| 2026-05-06 06:05 | 37.14362 | -116.93478 | 31068 ft | 459 kts | 124° |
| 2026-05-06 06:06 | 37.10000 | -116.87618 | 31035 ft | 466 kts | 132° |
| 2026-05-06 06:06 | 37.04622 | -116.82888 | 31023 ft | 473 kts | 137° |
| 2026-05-06 06:07 | 36.99240 | -116.78230 | 31033 ft | 474 kts | 137° |
| 2026-05-06 06:07 | 36.93800 | -116.73562 | 31031 ft | 474 kts | 138° |
| 2026-05-06 06:08 | 36.88372 | -116.68914 | 31012 ft | 473 kts | 137° |
| 2026-05-06 06:08 | 36.82941 | -116.64272 | 31023 ft | 473 kts | 137° |
| 2026-05-06 06:09 | 36.77522 | -116.59647 | 31008 ft | 471 kts | 137° |
| 2026-05-06 06:09 | 36.74858 | -116.57377 | 30652 ft | 468 kts | 137° |
| 2026-05-06 06:09 | 36.72161 | -116.55079 | 29727 ft | 471 kts | 137° |
| 2026-05-06 06:10 | 36.69443 | -116.52767 | 28819 ft | 475 kts | 138° |
| 2026-05-06 06:10 | 36.66724 | -116.50455 | 28196 ft | 470 kts | 137° |
| 2026-05-06 06:10 | 36.64292 | -116.47854 | 27451 ft | 454 kts | 124° |
| 2026-05-06 06:10 | 36.62216 | -116.44927 | 26852 ft | 449 kts | 125° |
| 2026-05-06 06:11 | 36.60142 | -116.42043 | 26248 ft | 445 kts | 125° |
| 2026-05-06 06:11 | 36.58101 | -116.39177 | 25631 ft | 441 kts | 125° |
| 2026-05-06 06:11 | 36.56081 | -116.36329 | 25003 ft | 438 kts | 126° |
| 2026-05-06 06:11 | 36.54102 | -116.33535 | 24411 ft | 434 kts | 126° |
| 2026-05-06 06:12 | 36.52113 | -116.30730 | 23846 ft | 430 kts | 126° |
| 2026-05-06 06:12 | 36.50159 | -116.27977 | 23624 ft | 418 kts | 126° |
| 2026-05-06 06:12 | 36.48263 | -116.25305 | 23394 ft | 407 kts | 126° |
| 2026-05-06 06:12 | 36.46413 | -116.22702 | 23167 ft | 397 kts | 126° |
| 2026-05-06 06:13 | 36.44602 | -116.20154 | 22767 ft | 392 kts | 126° |
| 2026-05-06 06:13 | 36.42799 | -116.17621 | 22272 ft | 390 kts | 127° |
| 2026-05-06 06:13 | 36.41007 | -116.15104 | 21822 ft | 387 kts | 127° |
| 2026-05-06 06:13 | 36.39253 | -116.12644 | 21378 ft | 385 kts | 127° |
| 2026-05-06 06:14 | 36.37486 | -116.10166 | 20948 ft | 382 kts | 127° |
| 2026-05-06 06:14 | 36.35733 | -116.07710 | 20505 ft | 379 kts | 127° |
| 2026-05-06 06:14 | 36.33990 | -116.05270 | 20076 ft | 377 kts | 127° |
| 2026-05-06 06:14 | 36.32256 | -116.02840 | 19652 ft | 376 kts | 128° |
| 2026-05-06 06:15 | 36.30551 | -116.00461 | 19531 ft | 365 kts | 128° |
| 2026-05-06 06:15 | 36.28888 | -115.98137 | 19352 ft | 355 kts | 128° |
| 2026-05-06 06:15 | 36.27269 | -115.95878 | 19191 ft | 346 kts | 128° |
| 2026-05-06 06:15 | 36.25711 | -115.93702 | 19036 ft | 337 kts | 128° |
| 2026-05-06 06:16 | 36.24256 | -115.91460 | 18711 ft | 332 kts | 124° |
| 2026-05-06 06:16 | 36.22852 | -115.89217 | 18465 ft | 329 kts | 124° |
| 2026-05-06 06:16 | 36.21445 | -115.86988 | 18177 ft | 329 kts | 125° |
| 2026-05-06 06:16 | 36.20038 | -115.84767 | 17893 ft | 328 kts | 125° |
| 2026-05-06 06:17 | 36.18629 | -115.82550 | 17576 ft | 326 kts | 125° |
| 2026-05-06 06:17 | 36.17231 | -115.80353 | 17266 ft | 323 kts | 125° |
| 2026-05-06 06:17 | 36.15842 | -115.78174 | 16967 ft | 321 kts | 125° |
| 2026-05-06 06:17 | 36.14479 | -115.76027 | 16673 ft | 322 kts | 123° |
| 2026-05-06 06:18 | 36.13441 | -115.73610 | 16303 ft | 315 kts | 107° |
| 2026-05-06 06:18 | 36.12669 | -115.71084 | 16031 ft | 313 kts | 108° |
| 2026-05-06 06:18 | 36.11885 | -115.68565 | 15738 ft | 314 kts | 107° |
| 2026-05-06 06:18 | 36.11104 | -115.66042 | 15442 ft | 313 kts | 107° |
| 2026-05-06 06:19 | 36.10332 | -115.63538 | 15132 ft | 311 kts | 107° |
| 2026-05-06 06:19 | 36.09563 | -115.61046 | 14844 ft | 311 kts | 107° |
| 2026-05-06 06:19 | 36.08791 | -115.58545 | 14548 ft | 312 kts | 107° |
| 2026-05-06 06:19 | 36.08030 | -115.56082 | 14242 ft | 310 kts | 107° |
| 2026-05-06 06:20 | 36.07265 | -115.53605 | 13944 ft | 306 kts | 107° |
| 2026-05-06 06:20 | 36.06506 | -115.51153 | 13680 ft | 305 kts | 107° |
| 2026-05-06 06:20 | 36.05746 | -115.48698 | 13408 ft | 306 kts | 107° |
| 2026-05-06 06:20 | 36.04986 | -115.46237 | 13101 ft | 307 kts | 107° |
| 2026-05-06 06:21 | 36.04222 | -115.43770 | 12792 ft | 307 kts | 107° |
| 2026-05-06 06:21 | 36.03457 | -115.41306 | 12478 ft | 307 kts | 107° |
| 2026-05-06 06:21 | 36.02694 | -115.38853 | 12190 ft | 305 kts | 107° |
| 2026-05-06 06:21 | 36.01947 | -115.36444 | 11915 ft | 304 kts | 105° |
| 2026-05-06 06:22 | 36.01557 | -115.33927 | 11588 ft | 297 kts | 89° |
| 2026-05-06 06:22 | 36.01440 | -115.31386 | 11326 ft | 296 kts | 90° |
| 2026-05-06 06:22 | 36.01309 | -115.28851 | 11064 ft | 295 kts | 90° |
| 2026-05-06 06:22 | 36.01182 | -115.26335 | 10767 ft | 292 kts | 91° |
| 2026-05-06 06:23 | 36.01058 | -115.23844 | 10493 ft | 289 kts | 91° |
| 2026-05-06 06:23 | 36.00935 | -115.21385 | 10241 ft | 285 kts | 91° |
| 2026-05-06 06:23 | 36.00814 | -115.18959 | 9958 ft | 282 kts | 92° |
| 2026-05-06 06:23 | 36.00694 | -115.16581 | 9669 ft | 280 kts | 92° |
| 2026-05-06 06:24 | 36.00574 | -115.14198 | 9414 ft | 277 kts | 93° |
| 2026-05-06 06:24 | 36.00455 | -115.11839 | 9152 ft | 273 kts | 94° |
| 2026-05-06 06:24 | 36.00337 | -115.09510 | 8901 ft | 270 kts | 94° |
| 2026-05-06 06:24 | 36.00220 | -115.07203 | 8640 ft | 267 kts | 94° |
| 2026-05-06 06:25 | 36.00106 | -115.04970 | 8448 ft | 255 kts | 94° |
| 2026-05-06 06:25 | 35.99997 | -115.02827 | 8189 ft | 246 kts | 94° |
| 2026-05-06 06:25 | 35.99910 | -114.98718 | 7576 ft | 235 kts | 91° |
| 2026-05-06 06:26 | 35.99893 | -114.96741 | 7259 ft | 231 kts | 91° |
| 2026-05-06 06:26 | 35.99879 | -114.94775 | 6950 ft | 227 kts | 91° |
| 2026-05-06 06:26 | 36.00135 | -114.92877 | 6549 ft | 226 kts | 63° |
| 2026-05-06 06:26 | 36.01153 | -114.91463 | 6234 ft | 220 kts | 33° |
| 2026-05-06 06:27 | 36.02433 | -114.90495 | 6030 ft | 211 kts | 27° |
| 2026-05-06 06:27 | 36.03807 | -114.90086 | 5768 ft | 200 kts | 352° |
| 2026-05-06 06:27 | 36.05052 | -114.90649 | 5542 ft | 188 kts | 327° |
| 2026-05-06 06:27 | 36.06183 | -114.91469 | 5419 ft | 189 kts | 324° |
| 2026-05-06 06:28 | 36.07005 | -114.92673 | 5240 ft | 184 kts | 288° |
| 2026-05-06 06:28 | 36.07205 | -114.94191 | 5077 ft | 181 kts | 271° |
| 2026-05-06 06:28 | 36.07258 | -114.95729 | 4879 ft | 172 kts | 271° |
| 2026-05-06 06:28 | 36.07336 | -114.97122 | 4725 ft | 155 kts | 272° |
| 2026-05-06 06:29 | 36.07366 | -114.98439 | 4516 ft | 153 kts | 269° |
| 2026-05-06 06:29 | 36.07368 | -114.99741 | 4255 ft | 151 kts | 269° |
| 2026-05-06 06:29 | 36.07369 | -115.00600 | 4096 ft | 151 kts | 268° |
| 2026-05-06 06:29 | 36.07368 | -115.02322 | 3779 ft | 149 kts | 268° |
| 2026-05-06 06:30 | 36.07367 | -115.03171 | 3626 ft | 149 kts | 268° |
| 2026-05-06 06:30 | 36.07368 | -115.04452 | 3409 ft | 149 kts | 268° |
| 2026-05-06 06:30 | 36.07367 | -115.06153 | 3130 ft | 149 kts | 268° |
| 2026-05-06 06:30 | 36.07367 | -115.07434 | 2931 ft | 149 kts | 268° |
| 2026-05-06 06:31 | 36.07369 | -115.08299 | 2811 ft | 149 kts | 268° |
| 2026-05-06 06:31 | 36.07368 | -115.10020 | 2531 ft | 156 kts | 268° |
| 2026-05-06 06:31 | 36.07367 | -115.10905 | 2377 ft | 152 kts | 268° |
| 2026-05-06 06:31 | 36.07366 | -115.12170 | 2163 ft | 145 kts | 268° |
| 2026-05-06 06:32 | 36.07365 | -115.13806 | 2082 ft | 130 kts | 270° |
| 2026-05-06 06:32 | 36.07365 | -115.14467 | 2093 ft | 96 kts | 270° |
| 2026-05-06 06:32 | 36.07362 | -115.15032 | 2099 ft | 39 kts | 270° |
| 2026-05-06 06:32 | 36.07440 | -115.15448 | 2108 ft | 38 kts | 300° |
| 2026-05-06 06:33 | 36.07542 | -115.15627 | 2116 ft | 36 kts | 315° |
| 2026-05-06 06:33 | 36.07633 | -115.15739 | 2125 ft | 14 kts | 315° |
| 2026-05-06 06:33 | 36.07709 | -115.15820 | 2122 ft | 16 kts | 336° |
| 2026-05-06 06:33 | 36.07847 | -115.15827 | 2113 ft | 23 kts | 0° |
| 2026-05-06 06:34 | 36.08015 | -115.15826 | 2110 ft | 25 kts | 0° |
| 2026-05-06 06:34 | 36.08153 | -115.15815 | 2110 ft | 10 kts | 34° |
| 2026-05-06 06:34 | 36.08163 | -115.15757 | 2108 ft | 9 kts | 91° |
| 2026-05-06 06:34 | 36.08164 | -115.15656 | 2104 ft | 14 kts | 89° |
| 2026-05-06 06:35 | 36.08165 | -115.15518 | 2101 ft | 15 kts | 89° |
| 2026-05-06 06:35 | 36.08187 | -115.15429 | 2100 ft | 1 kts | 17° |
| 2026-05-06 06:35 | 36.08195 | -115.15426 | 2100 ft | 2 kts | 9° |
| 2026-05-06 06:35 | 36.08218 | -115.15420 | 2100 ft | 4 kts | 18° |
| 2026-05-06 06:36 | 36.08242 | -115.15390 | 2100 ft | 5 kts | 70° |
| 2026-05-06 06:36 | 36.08253 | -115.15357 | 2100 ft | 1 kts | 66° |
| 2026-05-06 06:36 | 36.08256 | -115.15349 | 2100 ft | 0 kts | 66° |